Time,TemperatureF,DewpointF,PressureIn,WindDirection,WindDirectionDegrees,WindSpeedMPH,WindSpeedGustMPH,Humidity,HourlyPrecipIn,Conditions,Clouds,dailyrainin,SoftwareType,DateUTC
2013-05-22 00:00:00,49.5,48.1,29.94,NE,45,4.6,4.6,95,0.01,RA,,0.05,WeatherDisplay:10.37,2013-05-22 04:00:00,
2013-05-22 00:01:00,49.3,47.9,29.94,NNE,22,4.6,4.6,95,0.01,RA,,0.00,WeatherDisplay:10.37,2013-05-22 04:01:00,
2013-05-22 00:06:00,49.3,47.9,29.93,ENE,68,4.7,4.7,95,0.01,RA,,0.00,WeatherDisplay:10.37,2013-05-22 04:06:00,
2013-05-22 00:11:00,49.3,47.9,29.93,NW,315,3.2,3.2,95,0.01,CLR,,0.00,WeatherDisplay:10.37,2013-05-22 04:11:00,
2013-05-22 00:16:00,49.3,47.9,29.93,NNE,22,4.6,4.6,95,0.01,CLR,,0.00,WeatherDisplay:10.37,2013-05-22 04:16:00,
2013-05-22 00:21:00,49.5,48.1,29.93,East,90,2.3,2.3,95,0.01,CLR,,0.00,WeatherDisplay:10.37,2013-05-22 04:21:00,
2013-05-22 00:26:00,49.5,48.1,29.91,SSE,158,4.6,4.6,95,0.01,CLR,,0.00,WeatherDisplay:10.37,2013-05-22 04:26:00,
2013-05-22 00:31:00,49.5,48.1,29.91,East,90,3.2,3.2,95,0.01,CLR,,0.00,WeatherDisplay:10.37,2013-05-22 04:31:00,
2013-05-22 00:36:00,49.5,48.1,29.91,West,270,4.6,4.6,95,0.01,CLR,,0.00,WeatherDisplay:10.37,2013-05-22 04:36:00,
2013-05-22 00:41:00,49.6,48.2,29.92,NNE,22,3.5,3.5,95,0.02,RA,,0.01,WeatherDisplay:10.37,2013-05-22 04:41:00,
2013-05-22 00:46:00,49.6,48.2,29.92,West,270,2.3,2.3,95,0.08,RA,,0.14,WeatherDisplay:10.37,2013-05-22 04:46:00,
2013-05-22 00:51:00,49.6,48.2,29.97,SSE,158,3.7,3.7,95,0.22,RA,,0.27,WeatherDisplay:10.37,2013-05-22 04:51:00,
2013-05-22 00:56:00,49.6,48.2,29.97,West,270,2.3,2.5,95,0.42,RA,,0.48,WeatherDisplay:10.37,2013-05-22 04:56:00,
2013-05-22 01:01:00,49.5,48.1,29.97,ESE,112,5.8,5.8,95,0.58,RA,,0.59,WeatherDisplay:10.37,2013-05-22 05:01:00,
2013-05-22 01:06:00,49.5,48.1,29.93,SE,135,8.3,8.3,95,0.64,RA,,0.65,WeatherDisplay:10.37,2013-05-22 05:06:00,
2013-05-22 01:11:00,49.5,48.1,29.93,ESE,112,5.8,5.8,95,0.69,RA,,0.69,WeatherDisplay:10.37,2013-05-22 05:11:00,
2013-05-22 01:16:00,49.5,48.1,29.88,ESE,112,8.3,8.3,95,0.70,RA,,0.71,WeatherDisplay:10.37,2013-05-22 05:16:00,
2013-05-22 01:21:00,49.5,48.1,29.88,SSE,158,10.4,10.4,95,0.72,RA,,0.72,WeatherDisplay:10.37,2013-05-22 05:21:00,
2013-05-22 01:26:00,49.5,48.1,29.85,South,180,8.1,8.1,95,0.73,RA,,0.73,WeatherDisplay:10.37,2013-05-22 05:26:00,
2013-05-22 01:31:00,49.5,48.1,29.85,ESE,112,6.9,6.9,95,0.75,RA,,0.76,WeatherDisplay:10.37,2013-05-22 05:31:00,
2013-05-22 01:36:00,49.5,48.1,29.85,ESE,112,10.4,10.4,95,0.78,RA,,0.79,WeatherDisplay:10.37,2013-05-22 05:36:00,
2013-05-22 01:41:00,49.6,48.2,29.84,ESE,112,5.8,6.6,95,0.79,RA,,0.81,WeatherDisplay:10.37,2013-05-22 05:41:00,
2013-05-22 01:46:00,49.6,48.2,29.84,ESE,112,6.9,6.9,95,0.71,RA,,0.82,WeatherDisplay:10.37,2013-05-22 05:46:00,
2013-05-22 01:51:00,49.6,48.2,29.83,East,90,5.8,5.8,95,0.58,RA,,0.84,WeatherDisplay:10.37,2013-05-22 05:51:00,
2013-05-22 01:56:00,49.6,48.5,29.83,ESE,112,8.3,8.3,96,0.39,RA,,0.85,WeatherDisplay:10.37,2013-05-22 05:56:00,
2013-05-22 02:01:00,49.5,48.4,29.83,South,180,10.4,10.4,96,0.28,RA,,0.86,WeatherDisplay:10.37,2013-05-22 06:01:00,
2013-05-22 02:06:00,49.5,48.4,29.82,ESE,112,6.9,6.9,96,0.23,RA,,0.87,WeatherDisplay:10.37,2013-05-22 06:06:00,
2013-05-22 02:11:00,49.5,48.4,29.82,NW,315,8.8,8.8,96,0.19,RA,,0.88,WeatherDisplay:10.37,2013-05-22 06:11:00,
2013-05-22 02:17:00,49.5,48.4,29.80,ESE,112,9.9,9.9,96,0.19,RA,,0.90,WeatherDisplay:10.37,2013-05-22 06:17:00,
2013-05-22 02:22:00,49.6,48.5,29.80,SSE,158,5.8,5.8,96,0.18,RA,,0.90,WeatherDisplay:10.37,2013-05-22 06:22:00,
2013-05-22 02:27:00,49.6,48.5,29.80,West,270,3.5,3.5,96,0.18,RA,,0.91,WeatherDisplay:10.37,2013-05-22 06:27:00,
2013-05-22 02:32:00,49.6,48.5,29.80,NE,45,3.2,3.2,96,0.17,RA,,0.93,WeatherDisplay:10.37,2013-05-22 06:32:00,
2013-05-22 02:37:00,49.8,48.7,29.80,NE,45,2.7,2.7,96,0.15,RA,,0.93,WeatherDisplay:10.37,2013-05-22 06:37:00,
2013-05-22 02:42:00,49.8,48.7,29.85,NE,45,1.2,1.2,96,0.14,RA,,0.94,WeatherDisplay:10.37,2013-05-22 06:42:00,
2013-05-22 02:47:00,50.0,48.9,29.85,SE,135,1.7,1.7,96,0.12,RA,,0.94,WeatherDisplay:10.37,2013-05-22 06:47:00,
2013-05-22 02:52:00,50.0,48.9,29.86,East,90,2.2,2.2,96,0.10,CLR,,0.94,WeatherDisplay:10.37,2013-05-22 06:52:00,
2013-05-22 02:57:00,50.0,48.9,29.86,NNE,22,0.0,0.0,96,0.09,CLR,,0.94,WeatherDisplay:10.37,2013-05-22 06:57:00,
2013-05-22 03:02:00,50.0,48.9,29.86,West,270,2.3,2.3,96,0.08,CLR,,0.94,WeatherDisplay:10.37,2013-05-22 07:02:00,
2013-05-22 03:07:00,50.0,48.9,29.86,East,90,1.7,1.7,96,0.07,CLR,,0.94,WeatherDisplay:10.37,2013-05-22 07:07:00,
2013-05-22 03:12:00,50.0,48.9,29.86,West,270,1.2,1.3,96,0.09,RA,,0.97,WeatherDisplay:10.37,2013-05-22 07:12:00,
2013-05-22 03:17:00,50.0,48.9,29.87,East,90,0.0,0.0,96,0.09,RA,,0.99,WeatherDisplay:10.37,2013-05-22 07:17:00,
2013-05-22 03:22:00,50.0,48.9,29.87,ESE,112,2.7,2.7,96,0.11,RA,,1.01,WeatherDisplay:10.37,2013-05-22 07:22:00,
2013-05-22 03:27:00,50.0,48.9,29.85,WNW,292,2.3,2.3,96,0.16,RA,,1.07,WeatherDisplay:10.37,2013-05-22 07:27:00,
2013-05-22 03:32:00,50.0,48.9,29.85,West,270,2.7,2.7,96,0.16,RA,,1.09,WeatherDisplay:10.37,2013-05-22 07:32:00,
2013-05-22 03:37:00,50.0,48.9,29.86,WNW,292,0.0,0.0,96,0.18,RA,,1.11,WeatherDisplay:10.37,2013-05-22 07:37:00,
2013-05-22 03:42:00,50.0,48.9,29.86,West,270,2.3,2.3,96,0.18,RA,,1.12,WeatherDisplay:10.37,2013-05-22 07:42:00,
2013-05-22 03:47:00,50.4,49.3,29.86,West,270,2.7,2.7,96,0.21,RA,,1.15,WeatherDisplay:10.37,2013-05-22 07:47:00,
2013-05-22 03:52:00,50.4,49.3,29.88,SE,135,2.3,2.3,96,0.28,RA,,1.22,WeatherDisplay:10.37,2013-05-22 07:52:00,
2013-05-22 03:57:00,50.4,49.3,29.88,NE,45,0.0,0.0,96,0.34,RA,,1.28,WeatherDisplay:10.37,2013-05-22 07:57:00,
2013-05-22 04:02:00,50.4,49.3,29.88,ESE,112,1.2,1.2,96,0.37,RA,,1.31,WeatherDisplay:10.37,2013-05-22 08:02:00,
2013-05-22 04:07:00,50.4,49.3,29.88,WSW,248,0.0,0.0,96,0.39,RA,,1.33,WeatherDisplay:10.37,2013-05-22 08:07:00,
2013-05-22 04:12:00,50.4,49.3,29.88,South,180,0.0,0.0,96,0.38,RA,,1.35,WeatherDisplay:10.37,2013-05-22 08:12:00,
2013-05-22 04:17:00,50.4,49.3,29.88,South,180,0.0,0.0,96,0.37,RA,,1.36,WeatherDisplay:10.37,2013-05-22 08:17:00,
2013-05-22 04:22:00,50.4,49.3,29.88,ESE,112,0.0,0.0,96,0.36,RA,,1.37,WeatherDisplay:10.37,2013-05-22 08:22:00,
2013-05-22 04:27:00,50.4,49.3,29.85,ESE,112,0.0,0.0,96,0.31,RA,,1.38,WeatherDisplay:10.37,2013-05-22 08:27:00,
2013-05-22 04:32:00,50.4,49.3,29.85,ESE,112,0.0,0.0,96,0.30,RA,,1.39,WeatherDisplay:10.37,2013-05-22 08:32:00,
2013-05-22 04:37:00,50.4,49.3,29.85,South,180,0.0,0.0,96,0.29,RA,,1.40,WeatherDisplay:10.37,2013-05-22 08:37:00,
2013-05-22 04:42:00,50.4,49.3,29.85,East,90,0.0,0.0,96,0.29,RA,,1.41,WeatherDisplay:10.37,2013-05-22 08:42:00,
2013-05-22 04:47:00,50.4,49.3,29.85,ESE,112,2.3,2.3,96,0.27,RA,,1.42,WeatherDisplay:10.37,2013-05-22 08:47:00,
2013-05-22 04:52:00,50.4,49.3,29.84,SSE,158,2.3,2.3,96,0.21,RA,,1.43,WeatherDisplay:10.37,2013-05-22 08:52:00,
2013-05-22 04:57:00,50.4,49.3,29.84,SSE,158,1.2,1.3,96,0.16,RA,,1.44,WeatherDisplay:10.37,2013-05-22 08:57:00,
2013-05-22 05:02:00,50.4,49.3,29.84,East,90,2.7,2.7,96,0.14,RA,,1.45,WeatherDisplay:10.37,2013-05-22 09:02:00,
2013-05-22 05:07:00,50.4,49.3,29.84,ESE,112,4.6,4.6,96,0.13,RA,,1.46,WeatherDisplay:10.37,2013-05-22 09:07:00,
2013-05-22 05:12:00,50.2,49.1,29.84,ESE,112,6.9,6.9,96,0.12,RA,,1.47,WeatherDisplay:10.37,2013-05-22 09:12:00,
2013-05-22 05:17:00,50.2,49.1,29.80,South,180,3.7,3.7,96,0.11,RA,,1.47,WeatherDisplay:10.37,2013-05-22 09:17:00,
2013-05-22 05:22:00,50.2,49.1,29.80,SE,135,2.3,2.3,96,0.11,RA,,1.48,WeatherDisplay:10.37,2013-05-22 09:22:00,
2013-05-22 05:27:00,50.2,49.1,29.80,ESE,112,4.6,4.6,96,0.10,RA,,1.48,WeatherDisplay:10.37,2013-05-22 09:27:00,
2013-05-22 05:32:00,50.2,49.1,29.80,ESE,112,5.8,5.8,96,0.09,,,1.48,WeatherDisplay:10.37,2013-05-22 09:32:00,
2013-05-22 05:37:00,50.2,49.1,29.80,East,90,5.8,5.8,96,0.08,CLR,,1.48,WeatherDisplay:10.37,2013-05-22 09:37:00,
2013-05-22 05:42:00,50.2,49.1,29.79,NNE,22,5.8,5.8,96,0.07,CLR,,1.48,WeatherDisplay:10.37,2013-05-22 09:42:00,
2013-05-22 05:47:00,50.2,49.1,29.79,South,180,3.5,3.5,96,0.06,CLR,,1.48,WeatherDisplay:10.37,2013-05-22 09:47:00,
2013-05-22 05:52:00,50.2,49.1,29.79,South,180,3.2,3.2,96,0.05,CLR,,1.48,WeatherDisplay:10.37,2013-05-22 09:52:00,
2013-05-22 05:57:00,50.2,49.1,29.79,ESE,112,2.3,2.4,96,0.04,CLR,,1.48,WeatherDisplay:10.37,2013-05-22 09:57:00,
2013-05-22 06:02:00,50.2,49.1,29.79,NNE,22,1.2,1.2,96,0.03,CLR,,1.48,WeatherDisplay:10.37,2013-05-22 10:02:00,
2013-05-22 06:07:00,50.9,49.8,29.79,West,270,0.0,0.0,96,0.02,CLR,,1.48,WeatherDisplay:10.37,2013-05-22 10:07:00,
2013-05-22 06:12:00,50.7,49.6,29.79,ENE,68,0.0,0.0,96,0.01,CLR,,1.48,WeatherDisplay:10.37,2013-05-22 10:12:00,
2013-05-22 06:17:00,50.7,49.6,29.82,NW,315,0.0,0.0,96,0.01,CLR,,1.48,WeatherDisplay:10.37,2013-05-22 10:17:00,
2013-05-22 06:22:00,51.1,50.0,29.82,East,90,0.0,0.0,96,0.00,CLR,,1.48,WeatherDisplay:10.37,2013-05-22 10:22:00,
2013-05-22 06:27:00,51.1,50.0,29.84,NE,45,0.0,0.0,96,0.00,CLR,,1.48,WeatherDisplay:10.37,2013-05-22 10:27:00,
2013-05-22 06:32:00,51.1,50.0,29.84,NNE,22,0.0,0.0,96,0.00,CLR,,1.48,WeatherDisplay:10.37,2013-05-22 10:32:00,
2013-05-22 06:37:00,51.1,50.0,29.84,NNE,22,0.0,0.0,96,0.00,CLR,,1.48,WeatherDisplay:10.37,2013-05-22 10:37:00,
2013-05-22 06:42:00,51.1,50.0,29.83,NNE,22,0.0,0.0,96,0.00,CLR,,1.48,WeatherDisplay:10.37,2013-05-22 10:42:00,
2013-05-22 06:47:00,51.1,50.0,29.83,ESE,112,0.0,0.0,96,0.00,CLR,,1.48,WeatherDisplay:10.37,2013-05-22 10:47:00,
2013-05-22 06:52:00,51.1,50.0,29.83,WNW,292,0.0,0.0,96,0.00,CLR,,1.48,WeatherDisplay:10.37,2013-05-22 10:52:00,
2013-05-22 06:57:00,51.3,50.2,29.83,ESE,112,0.0,0.0,96,0.00,CLR,,1.48,WeatherDisplay:10.37,2013-05-22 10:57:00,
2013-05-22 07:02:00,51.4,50.3,29.83,NE,45,0.0,0.0,96,0.01,RA,,1.49,WeatherDisplay:10.37,2013-05-22 11:02:00,
2013-05-22 07:07:00,51.4,50.3,29.83,ENE,68,0.0,0.0,96,0.01,RA,,1.49,WeatherDisplay:10.37,2013-05-22 11:07:00,
2013-05-22 07:12:00,51.6,50.5,29.83,NE,45,0.0,0.0,96,0.01,CLR,,1.49,WeatherDisplay:10.37,2013-05-22 11:12:00,
2013-05-22 07:17:00,51.6,50.5,29.83,West,270,0.0,0.0,96,0.01,CLR,,1.49,WeatherDisplay:10.37,2013-05-22 11:17:00,
2013-05-22 07:22:00,51.6,50.5,29.83,ESE,112,0.0,0.0,96,0.01,CLR,,1.49,WeatherDisplay:10.37,2013-05-22 11:22:00,
2013-05-22 07:27:00,51.8,50.7,29.82,East,90,4.2,4.2,96,0.01,CLR,,1.49,WeatherDisplay:10.37,2013-05-22 11:27:00,
2013-05-22 07:32:00,51.6,50.5,29.82,ENE,68,4.6,4.6,96,0.01,CLR,,1.49,WeatherDisplay:10.37,2013-05-22 11:32:00,
2013-05-22 07:37:00,51.4,50.3,29.82,South,180,5.8,5.8,96,0.01,CLR,,1.49,WeatherDisplay:10.37,2013-05-22 11:37:00,
2013-05-22 07:42:00,51.4,50.3,29.79,WNW,292,2.3,2.5,96,0.01,CLR,,1.49,WeatherDisplay:10.37,2013-05-22 11:42:00,
2013-05-22 07:47:00,51.6,50.5,29.79,East,90,1.7,1.7,96,0.01,CLR,,1.49,WeatherDisplay:10.37,2013-05-22 11:47:00,
2013-05-22 07:52:00,51.8,50.7,29.82,WNW,292,0.0,0.0,96,0.01,CLR,,1.49,WeatherDisplay:10.37,2013-05-22 11:52:00,
2013-05-22 07:57:00,51.8,50.7,29.82,NE,45,0.0,0.0,96,0.01,CLR,,1.49,WeatherDisplay:10.37,2013-05-22 11:57:00,
2013-05-22 08:03:00,52.2,51.1,29.84,ENE,68,0.0,0.0,96,0.00,CLR,,1.49,WeatherDisplay:10.37,2013-05-22 12:03:00,
2013-05-22 08:08:00,52.3,51.2,29.84,East,90,0.0,0.0,96,0.00,CLR,,1.49,WeatherDisplay:10.37,2013-05-22 12:08:00,
2013-05-22 08:13:00,52.3,51.2,29.84,NE,45,1.7,2.0,96,0.00,CLR,,1.49,WeatherDisplay:10.37,2013-05-22 12:13:00,
2013-05-22 08:18:00,52.3,51.2,29.84,ESE,112,0.0,0.0,96,0.00,CLR,,1.49,WeatherDisplay:10.37,2013-05-22 12:18:00,
2013-05-22 08:23:00,52.5,51.4,29.84,NE,45,0.0,0.0,96,0.00,CLR,,1.49,WeatherDisplay:10.37,2013-05-22 12:23:00,
2013-05-22 08:28:00,52.7,51.6,29.84,NNE,22,0.0,0.0,96,0.00,CLR,,1.49,WeatherDisplay:10.37,2013-05-22 12:28:00,
2013-05-22 08:33:00,53.1,52.0,29.84,West,270,0.0,0.0,96,0.00,CLR,,1.49,WeatherDisplay:10.37,2013-05-22 12:33:00,
2013-05-22 08:38:00,53.2,52.1,29.84,SE,135,0.0,0.0,96,0.00,CLR,,1.49,WeatherDisplay:10.37,2013-05-22 12:38:00,
2013-05-22 08:43:00,53.2,51.8,29.84,South,180,0.0,0.0,95,0.00,CLR,,1.49,WeatherDisplay:10.37,2013-05-22 12:43:00,
2013-05-22 08:48:00,53.6,52.2,29.84,ENE,68,0.0,0.0,95,0.00,CLR,,1.49,WeatherDisplay:10.37,2013-05-22 12:48:00,
2013-05-22 08:53:00,53.8,52.4,29.83,NNE,22,0.0,0.0,95,0.00,CLR,,1.49,WeatherDisplay:10.37,2013-05-22 12:53:00,
2013-05-22 08:58:00,53.8,51.8,29.83,East,90,0.0,0.0,93,0.00,CLR,,1.49,WeatherDisplay:10.37,2013-05-22 12:58:00,
2013-05-22 09:03:00,54.1,52.1,29.84,ESE,112,2.3,2.3,93,0.00,CLR,,1.49,WeatherDisplay:10.37,2013-05-22 13:03:00,
2013-05-22 09:08:00,54.0,52.0,29.84,ESE,112,3.5,3.5,93,0.00,CLR,,1.49,WeatherDisplay:10.37,2013-05-22 13:08:00,
2013-05-22 09:13:00,53.4,51.4,29.84,SE,135,1.7,1.7,93,0.00,CLR,,1.49,WeatherDisplay:10.37,2013-05-22 13:13:00,
2013-05-22 09:18:00,53.8,51.8,29.83,SE,135,0.0,0.0,93,0.00,CLR,,1.49,WeatherDisplay:10.37,2013-05-22 13:18:00,
2013-05-22 09:23:00,54.1,52.1,29.83,NNE,22,0.0,0.0,93,0.00,CLR,,1.49,WeatherDisplay:10.37,2013-05-22 13:23:00,
2013-05-22 09:28:00,54.3,52.3,29.83,NNE,22,0.0,0.0,93,0.00,CLR,,1.49,WeatherDisplay:10.37,2013-05-22 13:28:00,
2013-05-22 09:33:00,54.5,52.5,29.83,NE,45,0.0,0.0,93,0.00,CLR,,1.49,WeatherDisplay:10.37,2013-05-22 13:33:00,
2013-05-22 09:38:00,54.7,52.1,29.83,ENE,68,3.5,3.5,91,0.00,CLR,,1.49,WeatherDisplay:10.37,2013-05-22 13:38:00,
2013-05-22 09:43:00,54.9,52.0,29.83,ESE,112,1.2,1.2,90,0.00,CLR,,1.49,WeatherDisplay:10.37,2013-05-22 13:43:00,
2013-05-22 09:48:00,55.0,52.1,29.83,WNW,292,0.0,0.0,90,0.00,CLR,,1.49,WeatherDisplay:10.37,2013-05-22 13:48:00,
2013-05-22 09:53:00,55.0,52.1,29.83,ESE,112,3.5,3.5,90,0.00,CLR,,1.49,WeatherDisplay:10.37,2013-05-22 13:53:00,
2013-05-22 09:58:00,55.4,52.2,29.83,SE,135,1.2,1.2,89,0.00,CLR,,1.49,WeatherDisplay:10.37,2013-05-22 13:58:00,
2013-05-22 10:03:00,55.8,52.6,29.83,ENE,68,2.3,2.3,89,0.00,CLR,,1.49,WeatherDisplay:10.37,2013-05-22 14:03:00,
2013-05-22 10:08:00,56.3,52.8,29.83,SSE,158,0.0,0.0,88,0.00,CLR,,1.49,WeatherDisplay:10.37,2013-05-22 14:08:00,
2013-05-22 10:13:00,56.8,53.0,29.83,East,90,2.7,2.7,87,0.00,CLR,,1.49,WeatherDisplay:10.37,2013-05-22 14:13:00,
2013-05-22 10:18:00,56.7,52.6,29.83,ENE,68,2.3,2.3,86,0.00,CLR,,1.49,WeatherDisplay:10.37,2013-05-22 14:18:00,
2013-05-22 10:23:00,56.8,52.7,29.83,SE,135,2.7,2.7,86,0.00,CLR,,1.49,WeatherDisplay:10.37,2013-05-22 14:23:00,
2013-05-22 10:28:00,57.0,52.9,29.83,East,90,3.5,3.5,86,0.00,CLR,,1.49,WeatherDisplay:10.37,2013-05-22 14:28:00,
2013-05-22 10:33:00,56.8,52.7,29.83,ENE,68,2.3,2.3,86,0.00,CLR,,1.49,WeatherDisplay:10.37,2013-05-22 14:33:00,
2013-05-22 10:38:00,57.2,53.0,29.84,ESE,112,2.3,2.3,86,0.00,CLR,,1.49,WeatherDisplay:10.37,2013-05-22 14:38:00,
2013-05-22 10:43:00,57.6,53.1,29.84,South,180,0.0,0.0,85,0.00,CLR,,1.49,WeatherDisplay:10.37,2013-05-22 14:43:00,
2013-05-22 10:48:00,57.6,53.4,29.84,ENE,68,0.0,0.0,86,0.00,CLR,,1.49,WeatherDisplay:10.37,2013-05-22 14:48:00,
2013-05-22 10:53:00,57.9,53.1,29.84,West,270,0.0,0.0,84,0.00,CLR,,1.49,WeatherDisplay:10.37,2013-05-22 14:53:00,
2013-05-22 10:58:00,58.1,53.3,29.84,West,270,0.0,0.0,84,0.00,CLR,,1.49,WeatherDisplay:10.37,2013-05-22 14:58:00,
2013-05-22 11:03:00,58.8,53.3,29.85,WNW,292,0.0,0.0,82,0.00,CLR,,1.49,WeatherDisplay:10.37,2013-05-22 15:03:00,
2013-05-22 11:08:00,58.8,53.3,29.85,East,90,3.2,3.2,82,0.00,CLR,,1.49,WeatherDisplay:10.37,2013-05-22 15:08:00,
2013-05-22 11:13:00,58.1,53.0,29.85,ENE,68,2.3,2.3,83,0.00,CLR,,1.49,WeatherDisplay:10.37,2013-05-22 15:13:00,
2013-05-22 11:18:00,58.5,53.4,29.85,NNE,22,0.0,0.0,83,0.00,CLR,,1.49,WeatherDisplay:10.37,2013-05-22 15:18:00,
2013-05-22 11:23:00,58.3,53.5,29.85,NE,45,0.0,0.0,84,0.00,CLR,,1.49,WeatherDisplay:10.37,2013-05-22 15:23:00,
2013-05-22 11:28:00,58.3,53.5,29.85,East,90,3.7,3.7,84,0.00,CLR,,1.49,WeatherDisplay:10.37,2013-05-22 15:28:00,
2013-05-22 11:33:00,57.6,52.8,29.85,ESE,112,4.7,4.7,84,0.00,CLR,,1.49,WeatherDisplay:10.37,2013-05-22 15:33:00,
2013-05-22 11:38:00,57.0,52.5,29.86,ESE,112,2.3,2.3,85,0.00,CLR,,1.49,WeatherDisplay:10.37,2013-05-22 15:38:00,
2013-05-22 11:43:00,57.2,53.0,29.86,South,180,3.2,3.2,86,0.00,CLR,,1.49,WeatherDisplay:10.37,2013-05-22 15:43:00,
2013-05-22 11:48:00,57.4,53.2,29.86,ESE,112,2.7,2.7,86,0.00,CLR,,1.49,WeatherDisplay:10.37,2013-05-22 15:48:00,
2013-05-22 11:53:00,57.4,53.2,29.85,SSE,158,3.7,3.7,86,0.00,CLR,,1.49,WeatherDisplay:10.37,2013-05-22 15:53:00,
2013-05-22 11:58:00,57.0,53.2,29.85,SE,135,5.3,5.3,87,0.00,CLR,,1.49,WeatherDisplay:10.37,2013-05-22 15:58:00,
2013-05-22 12:03:00,56.3,52.5,29.86,ESE,112,5.8,5.8,87,0.00,CLR,,1.49,WeatherDisplay:10.37,2013-05-22 16:03:00,
2013-05-22 12:08:00,55.8,52.0,29.86,ENE,68,4.6,4.6,87,0.00,CLR,,1.49,WeatherDisplay:10.37,2013-05-22 16:08:00,
2013-05-22 12:13:00,55.8,52.3,29.86,East,90,5.8,5.8,88,0.00,CLR,,1.49,WeatherDisplay:10.37,2013-05-22 16:13:00,
2013-05-22 12:18:00,55.6,52.1,29.86,SSE,158,5.8,5.8,88,0.00,CLR,,1.49,WeatherDisplay:10.37,2013-05-22 16:18:00,
2013-05-22 12:23:00,55.2,51.7,29.86,East,90,4.6,4.6,88,0.00,CLR,,1.49,WeatherDisplay:10.37,2013-05-22 16:23:00,
2013-05-22 12:28:00,55.2,51.7,29.86,ENE,68,6.9,6.9,88,0.00,CLR,,1.49,WeatherDisplay:10.37,2013-05-22 16:28:00,
2013-05-22 12:33:00,55.4,51.9,29.86,ENE,68,3.2,3.2,88,0.00,CLR,,1.49,WeatherDisplay:10.37,2013-05-22 16:33:00,
2013-05-22 12:38:00,55.0,51.5,29.86,ENE,68,7.3,7.3,88,0.00,CLR,,1.49,WeatherDisplay:10.37,2013-05-22 16:38:00,
2013-05-22 12:43:00,55.2,51.4,29.86,East,90,5.3,5.7,87,0.00,CLR,,1.49,WeatherDisplay:10.37,2013-05-22 16:43:00,
2013-05-22 12:48:00,55.6,51.8,29.86,SSE,158,5.8,5.8,87,0.00,CLR,,1.49,WeatherDisplay:10.37,2013-05-22 16:48:00,
2013-05-22 12:53:00,55.4,51.6,29.86,ESE,112,6.8,6.8,87,0.00,CLR,,1.49,WeatherDisplay:10.37,2013-05-22 16:53:00,
2013-05-22 12:58:00,54.9,51.4,29.86,East,90,5.8,5.8,88,0.00,CLR,,1.49,WeatherDisplay:10.37,2013-05-22 16:58:00,
2013-05-22 13:04:00,55.0,51.5,29.86,NE,45,5.8,5.8,88,0.00,CLR,,1.49,WeatherDisplay:10.37,2013-05-22 17:04:00,
2013-05-22 13:09:00,55.4,51.9,29.86,ENE,68,4.6,4.6,88,0.00,CLR,,1.49,WeatherDisplay:10.37,2013-05-22 17:09:00,
2013-05-22 13:14:00,55.4,51.9,29.86,ESE,112,4.6,4.6,88,0.00,CLR,,1.49,WeatherDisplay:10.37,2013-05-22 17:14:00,
2013-05-22 13:19:00,55.8,52.0,29.86,East,90,5.8,5.8,87,0.00,CLR,,1.49,WeatherDisplay:10.37,2013-05-22 17:19:00,
2013-05-22 13:24:00,55.9,51.8,29.86,ESE,112,4.6,5.0,86,0.00,CLR,,1.49,WeatherDisplay:10.37,2013-05-22 17:24:00,
2013-05-22 13:29:00,56.1,52.0,29.85,ESE,112,5.8,5.8,86,0.00,CLR,,1.49,WeatherDisplay:10.37,2013-05-22 17:29:00,
2013-05-22 13:34:00,57.4,52.9,29.85,ESE,112,5.8,5.8,85,0.00,CLR,,1.49,WeatherDisplay:10.37,2013-05-22 17:34:00,
2013-05-22 13:39:00,56.8,52.3,29.85,East,90,5.8,5.8,85,0.00,CLR,,1.49,WeatherDisplay:10.37,2013-05-22 17:39:00,
2013-05-22 13:44:00,57.0,52.2,29.85,ESE,112,6.3,6.5,84,0.00,CLR,,1.49,WeatherDisplay:10.37,2013-05-22 17:44:00,
2013-05-22 13:49:00,56.8,52.0,29.85,SSE,158,5.8,5.8,84,0.00,CLR,,1.49,WeatherDisplay:10.37,2013-05-22 17:49:00,
2013-05-22 13:54:00,58.1,52.6,29.85,SE,135,8.1,8.1,82,0.00,CLR,,1.49,WeatherDisplay:10.37,2013-05-22 17:54:00,
2013-05-22 13:59:00,57.9,52.8,29.85,ESE,112,8.1,8.1,83,0.00,CLR,,1.49,WeatherDisplay:10.37,2013-05-22 17:59:00,
2013-05-22 14:04:00,57.9,53.4,29.84,NE,45,2.3,2.3,85,0.00,CLR,,1.49,WeatherDisplay:10.37,2013-05-22 18:04:00,
2013-05-22 14:09:00,58.5,53.0,29.84,East,90,5.8,5.8,82,0.00,CLR,,1.49,WeatherDisplay:10.37,2013-05-22 18:09:00,
2013-05-22 14:14:00,58.6,53.1,29.84,ESE,112,5.8,5.8,82,0.00,CLR,,1.49,WeatherDisplay:10.37,2013-05-22 18:14:00,
2013-05-22 14:19:00,58.6,52.8,29.84,South,180,6.9,6.9,81,0.00,CLR,,1.49,WeatherDisplay:10.37,2013-05-22 18:19:00,
2013-05-22 14:24:00,58.5,52.7,29.84,ESE,112,8.1,8.1,81,0.00,CLR,,1.49,WeatherDisplay:10.37,2013-05-22 18:24:00,
2013-05-22 14:29:00,57.6,52.1,29.84,ESE,112,4.6,4.6,82,0.00,CLR,,1.49,WeatherDisplay:10.37,2013-05-22 18:29:00,
2013-05-22 14:34:00,57.6,52.1,29.84,ESE,112,4.6,4.6,82,0.00,CLR,,1.49,WeatherDisplay:10.37,2013-05-22 18:34:00,
2013-05-22 14:39:00,56.5,51.7,29.84,East,90,5.8,5.8,84,0.00,CLR,,1.49,WeatherDisplay:10.37,2013-05-22 18:39:00,
2013-05-22 14:44:00,56.5,51.7,29.84,East,90,5.8,5.8,84,0.00,CLR,,1.49,WeatherDisplay:10.37,2013-05-22 18:44:00,
2013-05-22 14:49:00,56.1,51.3,29.84,ESE,112,5.8,5.8,84,0.00,CLR,,1.49,WeatherDisplay:10.37,2013-05-22 18:49:00,
2013-05-22 14:54:00,56.3,51.8,29.84,ESE,112,8.3,8.3,85,0.00,CLR,,1.49,WeatherDisplay:10.37,2013-05-22 18:54:00,
2013-05-22 14:59:00,55.9,51.5,29.84,ENE,68,5.8,5.8,85,0.00,CLR,,1.49,WeatherDisplay:10.37,2013-05-22 18:59:00,
2013-05-22 15:04:00,55.6,51.2,29.84,ESE,112,6.9,6.9,85,0.00,CLR,,1.49,WeatherDisplay:10.37,2013-05-22 19:04:00,
2013-05-22 15:09:00,55.8,51.4,29.84,ESE,112,6.3,6.3,85,0.00,CLR,,1.49,WeatherDisplay:10.37,2013-05-22 19:09:00,
2013-05-22 15:14:00,55.6,51.2,29.84,SSE,158,4.6,4.6,85,0.00,CLR,,1.49,WeatherDisplay:10.37,2013-05-22 19:14:00,
2013-05-22 15:19:00,55.6,51.2,29.84,ESE,112,5.8,5.8,85,0.00,CLR,,1.49,WeatherDisplay:10.37,2013-05-22 19:19:00,
2013-05-22 15:24:00,55.4,51.0,29.84,ESE,112,5.8,5.8,85,0.00,CLR,,1.49,WeatherDisplay:10.37,2013-05-22 19:24:00,
2013-05-22 15:29:00,55.6,51.2,29.84,East,90,5.8,5.8,85,0.00,CLR,,1.49,WeatherDisplay:10.37,2013-05-22 19:29:00,
2013-05-22 15:34:00,55.8,51.0,29.84,East,90,6.9,6.9,84,0.00,CLR,,1.49,WeatherDisplay:10.37,2013-05-22 19:34:00,
2013-05-22 15:39:00,55.8,51.0,29.84,SE,135,8.3,8.3,84,0.00,CLR,,1.49,WeatherDisplay:10.37,2013-05-22 19:39:00,
2013-05-22 15:44:00,55.8,51.0,29.84,SSE,158,5.8,5.8,84,0.00,CLR,,1.49,WeatherDisplay:10.37,2013-05-22 19:44:00,
2013-05-22 15:49:00,55.9,50.8,29.84,East,90,6.3,6.3,83,0.00,CLR,,1.49,WeatherDisplay:10.37,2013-05-22 19:49:00,
2013-05-22 15:54:00,55.9,51.1,29.84,ESE,112,5.8,5.8,84,0.00,CLR,,1.49,WeatherDisplay:10.37,2013-05-22 19:54:00,
2013-05-22 15:59:00,56.5,51.1,29.84,ESE,112,5.8,5.8,82,0.00,CLR,,1.49,WeatherDisplay:10.37,2013-05-22 19:59:00,
2013-05-22 16:04:00,56.5,51.1,29.84,East,90,5.8,5.8,82,0.00,CLR,,1.49,WeatherDisplay:10.37,2013-05-22 20:04:00,
2013-05-22 16:09:00,56.3,50.9,29.84,East,90,4.6,4.6,82,0.00,CLR,,1.49,WeatherDisplay:10.37,2013-05-22 20:09:00,
2013-05-22 16:14:00,56.1,50.7,29.83,SSE,158,5.8,5.8,82,0.00,CLR,,1.49,WeatherDisplay:10.37,2013-05-22 20:14:00,
2013-05-22 16:19:00,56.3,51.2,29.83,SE,135,2.7,2.7,83,0.00,CLR,,1.49,WeatherDisplay:10.37,2013-05-22 20:19:00,
2013-05-22 16:24:00,56.5,51.1,29.83,SSE,158,5.8,5.8,82,0.00,CLR,,1.49,WeatherDisplay:10.37,2013-05-22 20:24:00,
2013-05-22 16:29:00,56.7,50.9,29.84,ESE,112,3.5,3.5,81,0.00,CLR,,1.49,WeatherDisplay:10.37,2013-05-22 20:29:00,
2013-05-22 16:34:00,56.3,50.9,29.84,ESE,112,4.6,4.6,82,0.00,CLR,,1.49,WeatherDisplay:10.37,2013-05-22 20:34:00,
2013-05-22 16:39:00,56.5,51.1,29.83,ENE,68,4.7,4.7,82,0.00,CLR,,1.49,WeatherDisplay:10.37,2013-05-22 20:39:00,
2013-05-22 16:44:00,56.3,50.9,29.83,ESE,112,4.6,4.6,82,0.00,CLR,,1.49,WeatherDisplay:10.37,2013-05-22 20:44:00,
2013-05-22 16:49:00,56.3,50.9,29.83,NE,45,3.5,3.5,82,0.00,CLR,,1.49,WeatherDisplay:10.37,2013-05-22 20:49:00,
2013-05-22 16:54:00,56.1,50.7,29.83,South,180,3.5,3.5,82,0.00,CLR,,1.49,WeatherDisplay:10.37,2013-05-22 20:54:00,
2013-05-22 16:59:00,56.8,51.4,29.83,ENE,68,2.3,2.3,82,0.00,CLR,,1.49,WeatherDisplay:10.37,2013-05-22 20:59:00,
2013-05-22 17:04:00,56.5,50.7,29.84,South,180,5.8,5.8,81,0.00,CLR,,1.49,WeatherDisplay:10.37,2013-05-22 21:04:00,
2013-05-22 17:09:00,56.1,50.3,29.84,SE,135,5.3,5.3,81,0.00,CLR,,1.49,WeatherDisplay:10.37,2013-05-22 21:09:00,
2013-05-22 17:14:00,55.4,50.0,29.84,ESE,112,6.9,6.9,82,0.00,CLR,,1.49,WeatherDisplay:10.37,2013-05-22 21:14:00,
2013-05-22 17:19:00,55.2,49.8,29.84,SSE,158,4.6,4.6,82,0.00,CLR,,1.49,WeatherDisplay:10.37,2013-05-22 21:19:00,
2013-05-22 17:24:00,55.0,49.6,29.84,ESE,112,7.3,7.3,82,0.00,CLR,,1.49,WeatherDisplay:10.37,2013-05-22 21:24:00,
2013-05-22 17:29:00,54.9,49.5,29.83,ESE,112,4.6,4.6,82,0.00,CLR,,1.49,WeatherDisplay:10.37,2013-05-22 21:29:00,
2013-05-22 17:34:00,54.7,49.6,29.83,ESE,112,2.3,2.3,83,0.00,CLR,,1.49,WeatherDisplay:10.37,2013-05-22 21:34:00,
2013-05-22 17:39:00,54.7,49.6,29.84,ESE,112,4.6,4.6,83,0.00,CLR,,1.49,WeatherDisplay:10.37,2013-05-22 21:39:00,
2013-05-22 17:44:00,54.7,50.0,29.84,ENE,68,4.6,4.6,84,0.00,CLR,,1.49,WeatherDisplay:10.37,2013-05-22 21:44:00,
2013-05-22 17:49:00,54.5,50.1,29.84,ENE,68,5.8,5.8,85,0.00,CLR,,1.49,WeatherDisplay:10.37,2013-05-22 21:49:00,
2013-05-22 17:54:00,54.5,50.1,29.83,ESE,112,4.7,4.7,85,0.00,CLR,,1.49,WeatherDisplay:10.37,2013-05-22 21:54:00,
2013-05-22 17:59:00,54.5,50.1,29.83,East,90,4.6,4.6,85,0.00,CLR,,1.49,WeatherDisplay:10.37,2013-05-22 21:59:00,
2013-05-22 18:04:00,54.3,49.9,29.83,ENE,68,5.8,5.8,85,0.00,CLR,,1.49,WeatherDisplay:10.37,2013-05-22 22:04:00,
2013-05-22 18:09:00,54.0,49.6,29.83,ESE,112,5.8,5.8,85,0.00,CLR,,1.49,WeatherDisplay:10.37,2013-05-22 22:09:00,
2013-05-22 18:14:00,54.0,49.6,29.83,ESE,112,6.3,6.3,85,0.00,CLR,,1.49,WeatherDisplay:10.37,2013-05-22 22:14:00,
2013-05-22 18:19:00,54.0,49.9,29.83,WNW,292,4.6,4.6,86,0.00,CLR,,1.49,WeatherDisplay:10.37,2013-05-22 22:19:00,
2013-05-22 18:24:00,54.0,49.9,29.83,ENE,68,3.7,3.7,86,0.00,CLR,,1.49,WeatherDisplay:10.37,2013-05-22 22:24:00,
2013-05-22 18:29:00,54.0,49.9,29.83,East,90,4.6,5.1,86,0.00,CLR,,1.49,WeatherDisplay:10.37,2013-05-22 22:29:00,
2013-05-22 18:34:00,53.6,49.5,29.83,SE,135,5.8,5.8,86,0.00,CLR,,1.49,WeatherDisplay:10.37,2013-05-22 22:34:00,
2013-05-22 18:39:00,53.4,49.3,29.84,East,90,6.3,6.3,86,0.00,CLR,,1.49,WeatherDisplay:10.37,2013-05-22 22:39:00,
2013-05-22 18:44:00,53.4,49.6,29.84,NE,45,2.3,2.3,87,0.00,CLR,,1.49,WeatherDisplay:10.37,2013-05-22 22:44:00,
2013-05-22 18:49:00,53.2,49.4,29.84,ENE,68,5.8,5.8,87,0.00,CLR,,1.49,WeatherDisplay:10.37,2013-05-22 22:49:00,
2013-05-22 18:54:00,53.2,49.4,29.84,SSE,158,3.5,3.5,87,0.00,CLR,,1.49,WeatherDisplay:10.37,2013-05-22 22:54:00,
2013-05-22 18:59:00,53.2,49.4,29.84,ESE,112,3.7,3.7,87,0.00,CLR,,1.49,WeatherDisplay:10.37,2013-05-22 22:59:00,
2013-05-22 19:04:00,53.2,49.4,29.85,ESE,112,4.7,4.7,87,0.00,CLR,,1.49,WeatherDisplay:10.37,2013-05-22 23:04:00,
2013-05-22 19:10:00,53.1,49.3,29.85,ESE,112,4.7,4.7,87,0.00,CLR,,1.49,WeatherDisplay:10.37,2013-05-22 23:10:00,
2013-05-22 19:15:00,52.9,49.4,29.86,SE,135,4.6,4.6,88,0.00,CLR,,1.49,WeatherDisplay:10.37,2013-05-22 23:15:00,
2013-05-22 19:20:00,52.7,49.5,29.86,East,90,3.5,3.5,89,0.00,CLR,,1.49,WeatherDisplay:10.37,2013-05-22 23:20:00,
2013-05-22 19:25:00,52.7,49.8,29.86,ESE,112,2.2,2.2,90,0.01,RA,,1.50,WeatherDisplay:10.37,2013-05-22 23:25:00,
2013-05-22 19:30:00,52.7,49.8,29.86,ESE,112,3.7,3.7,90,0.02,RA,,1.51,WeatherDisplay:10.37,2013-05-22 23:30:00,
2013-05-22 19:35:00,52.5,49.9,29.86,ESE,112,1.2,1.2,91,0.03,RA,,1.52,WeatherDisplay:10.37,2013-05-22 23:35:00,
2013-05-22 19:40:00,52.3,49.8,29.86,East,90,3.2,3.2,91,0.03,RA,,1.52,WeatherDisplay:10.37,2013-05-22 23:40:00,
2013-05-22 19:45:00,52.3,49.8,29.86,ENE,74,0.0,4.0,91,0.04,RA,,1.53,WeatherDisplay:10.37,2013-05-22 23:45:00,
2013-05-22 19:50:00,52.2,49.9,29.86,East,95,2.0,4.0,92,0.04,RA,,1.53,WeatherDisplay:10.37,2013-05-22 23:50:00,
2013-05-22 19:55:00,52.2,49.9,29.86,NE,45,3.5,3.5,92,0.04,CLR,,1.53,WeatherDisplay:10.37,2013-05-22 23:55:00,
2013-05-22 20:00:00,52.2,49.9,29.86,East,95,3.0,4.0,92,0.04,CLR,,1.53,WeatherDisplay:10.37,2013-05-23 00:00:00,
2013-05-22 20:05:00,52.1,50.1,29.85,East,88,1.0,5.0,93,0.04,CLR,,1.53,WeatherDisplay:10.37,2013-05-23 00:05:00,
2013-05-22 20:10:00,52.2,50.2,29.85,ESE,112,3.5,3.5,93,0.05,RA,,1.54,WeatherDisplay:10.37,2013-05-23 00:10:00,
2013-05-22 20:15:00,52.2,50.2,29.86,SE,135,0.0,0.0,93,0.05,RA,,1.54,WeatherDisplay:10.37,2013-05-23 00:15:00,
2013-05-22 20:20:00,52.0,50.0,29.86,ESE,113,5.0,6.0,93,0.05,CLR,,1.54,WeatherDisplay:10.37,2013-05-23 00:20:00,
2013-05-22 20:25:00,52.0,50.0,29.86,ESE,105,0.0,5.0,93,0.04,CLR,,1.54,WeatherDisplay:10.37,2013-05-23 00:25:00,
2013-05-22 20:30:00,52.0,50.3,29.86,ESE,114,3.0,6.0,94,0.03,CLR,,1.54,WeatherDisplay:10.37,2013-05-23 00:30:00,
2013-05-22 20:35:00,52.0,50.3,29.86,ESE,122,6.0,7.0,94,0.02,CLR,,1.54,WeatherDisplay:10.37,2013-05-23 00:35:00,
2013-05-22 20:40:00,52.0,50.3,29.86,South,180,4.6,4.6,94,0.02,CLR,,1.54,WeatherDisplay:10.37,2013-05-23 00:40:00,
2013-05-22 20:45:00,52.0,50.3,29.86,ESE,119,3.0,5.0,94,0.01,CLR,,1.54,WeatherDisplay:10.37,2013-05-23 00:45:00,
2013-05-22 20:50:00,52.0,50.3,29.86,ENE,68,5.8,5.8,94,0.01,CLR,,1.54,WeatherDisplay:10.37,2013-05-23 00:50:00,
2013-05-22 20:55:00,52.0,50.3,29.86,East,94,5.0,5.0,94,0.01,CLR,,1.54,WeatherDisplay:10.37,2013-05-23 00:55:00,
2013-05-22 21:00:00,52.0,50.6,29.86,NE,45,5.8,5.8,95,0.01,CLR,,1.54,WeatherDisplay:10.37,2013-05-23 01:00:00,
2013-05-22 21:05:00,52.0,50.6,29.86,ENE,68,3.2,3.2,95,0.01,CLR,,1.54,WeatherDisplay:10.37,2013-05-23 01:05:00,
2013-05-22 21:10:00,52.0,50.6,29.86,East,92,2.0,5.0,95,0.00,CLR,,1.54,WeatherDisplay:10.37,2013-05-23 01:10:00,
2013-05-22 21:15:00,52.0,50.6,29.86,SE,135,5.8,5.8,95,0.00,CLR,,1.54,WeatherDisplay:10.37,2013-05-23 01:15:00,
2013-05-22 21:20:00,52.0,50.6,29.86,ESE,112,3.2,3.7,95,0.00,CLR,,1.54,WeatherDisplay:10.37,2013-05-23 01:20:00,
2013-05-22 21:25:00,52.2,50.8,29.86,East,96,0.0,3.0,95,0.00,CLR,,1.54,WeatherDisplay:10.37,2013-05-23 01:25:00,
2013-05-22 21:30:00,52.2,50.8,29.86,East,80,1.0,5.0,95,0.00,CLR,,1.54,WeatherDisplay:10.37,2013-05-23 01:30:00,
2013-05-22 21:35:00,52.2,50.8,29.86,SE,135,3.5,3.5,95,0.00,CLR,,1.54,WeatherDisplay:10.37,2013-05-23 01:35:00,
2013-05-22 21:40:00,52.2,50.8,29.87,ESE,123,2.0,3.0,95,0.00,CLR,,1.54,WeatherDisplay:10.37,2013-05-23 01:40:00,
2013-05-22 21:45:00,52.2,50.8,29.87,ESE,110,2.0,3.0,95,0.00,CLR,,1.54,WeatherDisplay:10.37,2013-05-23 01:45:00,
2013-05-22 21:50:00,52.2,50.8,29.87,ESE,113,0.0,3.0,95,0.00,CLR,,1.54,WeatherDisplay:10.37,2013-05-23 01:50:00,
2013-05-22 21:55:00,52.2,50.8,29.87,East,90,2.3,2.6,95,0.00,CLR,,1.54,WeatherDisplay:10.37,2013-05-23 01:55:00,
2013-05-22 22:00:00,52.2,50.8,29.87,East,89,1.0,4.0,95,0.00,CLR,,1.54,WeatherDisplay:10.37,2013-05-23 02:00:00,
2013-05-22 22:05:00,52.2,50.8,29.86,NE,55,1.0,4.0,95,0.00,CLR,,1.54,WeatherDisplay:10.37,2013-05-23 02:05:00,
2013-05-22 22:10:00,52.2,50.8,29.86,NNE,22,0.0,0.0,95,0.00,CLR,,1.54,WeatherDisplay:10.37,2013-05-23 02:10:00,
2013-05-22 22:15:00,52.2,50.8,29.87,ESE,112,2.3,2.3,95,0.00,CLR,,1.54,WeatherDisplay:10.37,2013-05-23 02:15:00,
2013-05-22 22:20:00,52.2,50.8,29.87,NW,315,2.3,0.0,95,0.00,CLR,,1.54,WeatherDisplay:10.37,2013-05-23 02:20:00,
2013-05-22 22:25:00,52.2,50.8,29.87,East,90,0.0,0.0,95,0.00,CLR,,1.54,WeatherDisplay:10.37,2013-05-23 02:25:00,
2013-05-22 22:30:00,52.2,50.8,29.87,ESE,112,2.3,2.3,95,0.00,CLR,,1.54,WeatherDisplay:10.37,2013-05-23 02:30:00,
2013-05-22 22:35:00,52.2,50.8,29.87,SE,135,1.1,1.1,95,0.00,CLR,,1.54,WeatherDisplay:10.37,2013-05-23 02:35:00,
2013-05-22 22:40:00,52.3,50.9,29.86,East,90,0.0,0.0,95,0.00,CLR,,1.54,WeatherDisplay:10.37,2013-05-23 02:40:00,
2013-05-22 22:45:00,52.3,50.9,29.86,ESE,116,0.0,0.0,95,0.00,CLR,,1.54,WeatherDisplay:10.37,2013-05-23 02:45:00,
2013-05-22 22:50:00,52.3,50.9,29.86,East,90,2.3,2.3,95,0.00,CLR,,1.54,WeatherDisplay:10.37,2013-05-23 02:50:00,
2013-05-22 22:55:00,52.3,50.9,29.86,East,90,3.2,3.2,95,0.00,CLR,,1.54,WeatherDisplay:10.37,2013-05-23 02:55:00,
2013-05-22 23:00:00,52.3,50.9,29.86,ESE,117,1.0,3.0,95,0.00,CLR,,1.54,WeatherDisplay:10.37,2013-05-23 03:00:00,
2013-05-22 23:05:00,52.3,50.9,29.86,ESE,112,4.7,4.7,95,0.00,CLR,,1.55,WeatherDisplay:10.37,2013-05-23 03:05:00,
2013-05-22 23:10:00,52.3,50.9,29.86,South,180,3.5,3.5,95,0.01,RA,,1.55,WeatherDisplay:10.37,2013-05-23 03:10:00,
2013-05-22 23:15:00,52.3,51.2,29.85,SE,141,2.0,3.0,96,0.01,,,1.55,WeatherDisplay:10.37,2013-05-23 03:15:00,
2013-05-22 23:20:00,52.3,51.2,29.85,SSE,158,2.3,2.3,96,0.01,CLR,,1.55,WeatherDisplay:10.37,2013-05-23 03:20:00,
2013-05-22 23:25:00,52.3,51.2,29.85,NE,45,0.0,0.0,96,0.01,CLR,,1.55,WeatherDisplay:10.37,2013-05-23 03:25:00,
2013-05-22 23:30:00,52.3,51.2,29.85,ENE,75,2.0,2.0,96,0.01,CLR,,1.55,WeatherDisplay:10.37,2013-05-23 03:30:00,
2013-05-22 23:35:00,52.2,51.1,29.85,ESE,112,2.7,2.7,96,0.01,CLR,,1.55,WeatherDisplay:10.37,2013-05-23 03:35:00,
2013-05-22 23:40:00,52.2,51.1,29.85,NNE,22,1.2,1.2,96,0.01,CLR,,1.55,WeatherDisplay:10.37,2013-05-23 03:40:00,
2013-05-22 23:45:00,52.2,51.1,29.85,East,95,5.0,6.0,96,0.01,CLR,,1.55,WeatherDisplay:10.37,2013-05-23 03:45:00,
2013-05-22 23:50:00,52.2,51.1,29.85,ESE,103,5.0,6.0,96,0.01,CLR,,1.55,WeatherDisplay:10.37,2013-05-23 03:50:00,
2013-05-22 23:55:00,52.2,51.1,29.84,South,180,2.3,2.5,96,0.01,CLR,,1.55,WeatherDisplay:10.37,2013-05-23 03:55:00,